Main page


Airports :

Tripoli, Libya

Mitiga International Airport

latitude: 32-54N, longitude: 13-17E, elevation: 11 m

Current weather observation

The report was made 1 hour and 49 minutes ago, at 19:55 UTC
Wind 11 kt from the West/Southwest
Temperature 14°C
Humidity 38%
Pressure 1011 hPa
Visibility: 6000 m

METAR: HLLM 221955Z 25011KT 6000 VEW025 14/00 Q1011

Time: 23:44 (21:44 UTC)


The report was made 10 hours and 44 minutes ago, at 11:00 UTC
Forecast valid from 22 at 12 UTC to 23 at 12 UTC
Wind 15 kt from the West with gusts up to 25 kt
Visibility: 7000 m
Scattered clouds at a height of 2500 ft
Scattered clouds at a height of 7000 ft
from 22 at 21 UTC to 23 at 12 UTC
Visibility: 5000 m
Broken clouds at a height of 2000 ft
Scattered clouds at a height of 7000 ft
rain showers

TAF: HLLM 221100Z 2212/2312 27015G25KT 7000 SCT025 SCT070 TEMPO 2221/2312 5000 SHRA BKN020 SCT070

Weather observations and forecasts of more than 4000 airports (METAR and TAF reports).

The available stations are represented by yellow and red dots on the map.

Hover mouse over dot to see the name of the station.

Then click to see weather observations and forecasts.

To change the map : click on the green buttons with a black cross to zoom in, on the green button with a dash to zoom out, or on the green arrows for adjacent maps.